Time;durP1;ratioP1;P1;durP2;ratioP2;P2;SDS_P1;SDS_P2;PMS_P1;PMS_P2;Temp;Humidity;BMP_temperature;BMP_pressure;BME280_temperature;BME280_humidity;BME280_pressure;Samples;Min_cycle;Max_cycle;Signal;HPM_P1;HPM_P2
2021/07/30 00:02:13;;;;;;;46.72;29.98;;;;;;;;;;5058492;28;20045;-57
2021/07/30 00:04:39;;;;;;;45.70;30.77;;;;;;;;;;5057802;28;20045;-58
2021/07/30 00:07:05;;;;;;;49.13;31.73;;;;;;;;;;5050932;28;20036;-58
2021/07/30 00:09:31;;;;;;;53.30;30.17;;;;;;;;;;5057749;28;20493;-57
2021/07/30 00:11:57;;;;;;;50.20;28.83;;;;;;;;;;5056105;28;20072;-57
2021/07/30 00:14:23;;;;;;;49.22;29.67;;;;;;;;;;5059673;28;20045;-57
2021/07/30 00:16:49;;;;;;;49.58;31.45;;;;;;;;;;5048643;28;20044;-57
2021/07/30 00:19:14;;;;;;;50.95;30.42;;;;;;;;;;5057726;28;20571;-58
2021/07/30 00:21:40;;;;;;;50.38;29.52;;;;;;;;;;5055452;28;20581;-57
2021/07/30 00:24:06;;;;;;;46.53;30.08;;;;;;;;;;5058319;28;20059;-57
2021/07/30 00:26:32;;;;;;;48.53;26.48;;;;;;;;;;5056507;28;20158;-55
2021/07/30 00:28:58;;;;;;;61.63;29.30;;;;;;;;;;5060207;28;20051;-57
2021/07/30 00:31:23;;;;;;;43.97;27.05;;;;;;;;;;5081893;28;20037;-57
2021/07/30 00:33:49;;;;;;;54.72;30.23;;;;;;;;;;5063179;28;20037;-60
2021/07/30 00:36:15;;;;;;;46.05;29.40;;;;;;;;;;5078011;28;20040;-57
2021/07/30 00:38:41;;;;;;;44.58;28.02;;;;;;;;;;5061499;28;20080;-58
2021/07/30 00:41:06;;;;;;;41.53;26.52;;;;;;;;;;5061349;28;20182;-57
2021/07/30 00:43:32;;;;;;;42.47;26.35;;;;;;;;;;5062015;28;20788;-56
2021/07/30 00:45:59;;;;;;;40.30;25.48;;;;;;;;;;5061055;28;20469;-56
2021/07/30 00:48:25;;;;;;;42.25;27.08;;;;;;;;;;5059759;28;21046;-57
2021/07/30 00:50:51;;;;;;;44.28;24.77;;;;;;;;;;5060523;28;20036;-57
2021/07/30 00:53:18;;;;;;;38.35;24.00;;;;;;;;;;5060010;28;20410;-58
2021/07/30 00:55:44;;;;;;;42.03;24.05;;;;;;;;;;5059498;28;20036;-58
2021/07/30 00:58:11;;;;;;;43.33;24.50;;;;;;;;;;5059526;28;20532;-57
2021/07/30 01:00:37;;;;;;;37.78;25.05;;;;;;;;;;5059493;28;20061;-56
2021/07/30 01:03:03;;;;;;;41.97;24.73;;;;;;;;;;5060979;28;20040;-57
2021/07/30 01:05:29;;;;;;;41.95;25.58;;;;;;;;;;5050590;28;20041;-58
2021/07/30 01:07:55;;;;;;;37.35;23.38;;;;;;;;;;5059710;28;20036;-57
2021/07/30 01:10:22;;;;;;;41.05;24.02;;;;;;;;;;5058852;28;20033;-57
2021/07/30 01:12:48;;;;;;;43.42;22.95;;;;;;;;;;5057949;28;20044;-56
2021/07/30 01:15:14;;;;;;;36.70;22.27;;;;;;;;;;5060841;28;20081;-57
2021/07/30 01:17:39;;;;;;;36.20;23.10;;;;;;;;;;5059627;28;20192;-57
2021/07/30 01:20:06;;;;;;;35.97;21.58;;;;;;;;;;5061013;28;20074;-57
2021/07/30 01:22:35;;;;;;;33.80;21.00;;;;;;;;;;5059832;28;20048;-57
2021/07/30 01:25:00;;;;;;;35.10;21.38;;;;;;;;;;5059238;28;20036;-57
2021/07/30 01:27:26;;;;;;;38.63;20.75;;;;;;;;;;5058758;28;20414;-57
2021/07/30 01:29:52;;;;;;;33.33;20.25;;;;;;;;;;5059510;28;20116;-57
2021/07/30 01:32:19;;;;;;;32.97;19.45;;;;;;;;;;5058009;28;20032;-56
2021/07/30 01:34:45;;;;;;;35.08;20.60;;;;;;;;;;5059211;28;20045;-57
2021/07/30 01:37:11;;;;;;;34.92;20.98;;;;;;;;;;5058421;28;20085;-57
2021/07/30 01:39:37;;;;;;;36.50;21.17;;;;;;;;;;5057199;28;20637;-57
2021/07/30 01:42:04;;;;;;;42.55;21.73;;;;;;;;;;5057139;28;20052;-56
2021/07/30 01:44:29;;;;;;;31.05;19.55;;;;;;;;;;5056709;28;20043;-57
2021/07/30 01:46:55;;;;;;;34.65;20.25;;;;;;;;;;5059879;28;20033;-56
2021/07/30 01:49:21;;;;;;;41.63;20.05;;;;;;;;;;5056314;28;20390;-57
2021/07/30 01:51:47;;;;;;;33.03;17.92;;;;;;;;;;5057670;28;20554;-56
2021/07/30 01:54:16;;;;;;;31.35;17.65;;;;;;;;;;5057890;28;20047;-57
2021/07/30 01:56:42;;;;;;;30.88;17.65;;;;;;;;;;5057391;28;20079;-57
2021/07/30 01:59:09;;;;;;;33.42;18.10;;;;;;;;;;5057559;28;20190;-56
2021/07/30 02:01:34;;;;;;;36.13;18.75;;;;;;;;;;5056633;28;20063;-57
2021/07/30 02:04:00;;;;;;;28.58;18.15;;;;;;;;;;5058679;28;20040;-57
2021/07/30 02:06:26;;;;;;;30.08;18.05;;;;;;;;;;5057727;28;20044;-57
2021/07/30 02:08:52;;;;;;;30.65;18.55;;;;;;;;;;5058375;28;20398;-56
2021/07/30 02:11:18;;;;;;;34.05;18.45;;;;;;;;;;5057131;28;20412;-55
2021/07/30 02:16:28;;;;;;;35.55;18.23;;;;;;;;;;5058525;28;20083;-57
2021/07/30 02:18:54;;;;;;;37.08;18.08;;;;;;;;;;5057773;28;20049;-57
2021/07/30 02:21:20;;;;;;;34.78;17.98;;;;;;;;;;5057624;28;20086;-57
2021/07/30 02:23:45;;;;;;;29.58;17.83;;;;;;;;;;5058797;28;20042;-57
2021/07/30 02:26:11;;;;;;;28.52;16.83;;;;;;;;;;5058176;28;20032;-57
2021/07/30 02:28:37;;;;;;;25.60;15.63;;;;;;;;;;5056877;28;20036;-56
2021/07/30 02:31:03;;;;;;;29.40;16.45;;;;;;;;;;5058505;28;20071;-56
2021/07/30 02:33:29;;;;;;;28.67;15.57;;;;;;;;;;5058492;28;20045;-55
2021/07/30 02:35:55;;;;;;;29.30;15.98;;;;;;;;;;5060413;28;20036;-56
2021/07/30 02:38:20;;;;;;;29.65;16.13;;;;;;;;;;5062030;28;20036;-56
2021/07/30 02:40:46;;;;;;;26.88;16.23;;;;;;;;;;5063851;28;20045;-55
2021/07/30 02:43:12;;;;;;;30.85;15.32;;;;;;;;;;5064095;28;20037;-55
2021/07/30 02:45:38;;;;;;;34.85;16.15;;;;;;;;;;5060901;28;20048;-56
2021/07/30 02:48:04;;;;;;;30.95;15.43;;;;;;;;;;5060752;28;20581;-55
2021/07/30 02:50:29;;;;;;;28.58;15.98;;;;;;;;;;5059257;28;20090;-55
2021/07/30 02:52:55;;;;;;;30.02;15.30;;;;;;;;;;5060045;28;20123;-57
2021/07/30 02:55:21;;;;;;;36.72;15.85;;;;;;;;;;5057330;28;20131;-57
2021/07/30 02:57:47;;;;;;;23.70;14.88;;;;;;;;;;5058437;28;20067;-57
2021/07/30 03:00:13;;;;;;;29.00;16.20;;;;;;;;;;5059378;28;20051;-57
2021/07/30 03:02:39;;;;;;;30.75;14.57;;;;;;;;;;5058258;28;20515;-57
2021/07/30 03:05:05;;;;;;;25.25;15.77;;;;;;;;;;5058124;28;20371;-56
2021/07/30 03:07:31;;;;;;;24.88;15.20;;;;;;;;;;5058167;28;20032;-55
2021/07/30 03:09:57;;;;;;;24.50;15.32;;;;;;;;;;5058765;28;20055;-57
2021/07/30 03:12:23;;;;;;;25.08;15.13;;;;;;;;;;5056992;28;20154;-56
2021/07/30 03:14:49;;;;;;;25.33;14.27;;;;;;;;;;5058464;28;20033;-57
2021/07/30 03:17:15;;;;;;;22.73;14.38;;;;;;;;;;5058582;28;20048;-57
2021/07/30 03:19:40;;;;;;;28.85;15.32;;;;;;;;;;5063134;28;20142;-56
2021/07/30 03:22:06;;;;;;;33.10;15.40;;;;;;;;;;5065240;28;20048;-55
2021/07/30 03:24:32;;;;;;;28.70;14.68;;;;;;;;;;5058461;28;20935;-56
2021/07/30 03:26:58;;;;;;;30.20;15.15;;;;;;;;;;5059522;28;20044;-57
2021/07/30 03:29:24;;;;;;;27.58;14.93;;;;;;;;;;5056607;28;20129;-58
2021/07/30 03:31:50;;;;;;;30.27;15.18;;;;;;;;;;5058711;28;20485;-57
2021/07/30 03:34:17;;;;;;;30.00;14.63;;;;;;;;;;5056477;28;20525;-58
2021/07/30 03:36:43;;;;;;;24.80;13.57;;;;;;;;;;5057551;28;20048;-58
2021/07/30 03:39:09;;;;;;;27.83;14.73;;;;;;;;;;5055337;28;20052;-58
2021/07/30 03:41:38;;;;;;;30.52;13.32;;;;;;;;;;5053998;28;20109;-56
2021/07/30 03:44:04;;;;;;;25.60;14.27;;;;;;;;;;5056645;28;20044;-56
2021/07/30 03:46:30;;;;;;;27.60;13.90;;;;;;;;;;5054044;28;20033;-58
2021/07/30 03:48:55;;;;;;;29.27;14.18;;;;;;;;;;5055633;28;20040;-56
2021/07/30 03:51:21;;;;;;;32.47;13.68;;;;;;;;;;5055216;28;20626;-57
2021/07/30 03:53:47;;;;;;;24.02;12.75;;;;;;;;;;5055799;28;20165;-57
2021/07/30 03:56:16;;;;;;;29.35;14.63;;;;;;;;;;5055905;28;20136;-57
2021/07/30 03:58:46;;;;;;;26.55;14.50;;;;;;;;;;5057686;28;20040;-57
2021/07/30 04:01:12;;;;;;;28.70;12.90;;;;;;;;;;5058108;28;20134;-56
2021/07/30 04:03:42;;;;;;;22.83;13.30;;;;;;;;;;5058151;28;20128;-58
2021/07/30 04:06:08;;;;;;;22.10;13.05;;;;;;;;;;5057514;28;20094;-57
2021/07/30 04:08:34;;;;;;;25.38;13.32;;;;;;;;;;5056256;28;20447;-58
2021/07/30 04:11:00;;;;;;;27.17;14.38;;;;;;;;;;5057027;28;20084;-57
2021/07/30 04:13:26;;;;;;;26.75;14.80;;;;;;;;;;5056342;28;20049;-58
2021/07/30 04:15:51;;;;;;;27.30;14.75;;;;;;;;;;5052700;28;20040;-55
2021/07/30 04:18:17;;;;;;;22.42;13.75;;;;;;;;;;5055424;28;20155;-56
2021/07/30 04:20:43;;;;;;;22.58;13.52;;;;;;;;;;5056452;28;20101;-55
2021/07/30 04:23:09;;;;;;;22.02;12.80;;;;;;;;;;5056999;28;20064;-56
2021/07/30 04:25:41;;;;;;;22.65;13.80;;;;;;;;;;5055271;28;20128;-56
2021/07/30 04:28:07;;;;;;;32.17;14.15;;;;;;;;;;5055720;28;20109;-54
2021/07/30 04:30:33;;;;;;;25.30;14.20;;;;;;;;;;5073691;28;20166;-56
2021/07/30 04:32:58;;;;;;;28.85;14.85;;;;;;;;;;5061957;28;20128;-57
2021/07/30 04:35:24;;;;;;;27.38;14.25;;;;;;;;;;5056609;28;20131;-55
2021/07/30 04:37:50;;;;;;;22.15;13.20;;;;;;;;;;5055089;28;20048;-56
2021/07/30 04:40:19;;;;;;;26.98;13.35;;;;;;;;;;5055354;28;20049;-59
2021/07/30 04:42:45;;;;;;;20.67;12.57;;;;;;;;;;5043600;28;20052;-56
2021/07/30 04:45:11;;;;;;;23.65;12.05;;;;;;;;;;5055869;28;20033;-56
2021/07/30 04:47:37;;;;;;;28.25;12.18;;;;;;;;;;5054746;28;20049;-57
2021/07/30 04:50:35;;;;;;;23.02;12.63;;;;;;;;;;5056222;28;20035;-58
2021/07/30 04:53:01;;;;;;;25.23;12.90;;;;;;;;;;5013200;28;20052;-57
2021/07/30 04:55:27;;;;;;;21.02;12.15;;;;;;;;;;5062569;28;20107;-57
2021/07/30 04:57:53;;;;;;;19.08;11.27;;;;;;;;;;5058314;28;20059;-56
2021/07/30 05:00:22;;;;;;;23.65;12.45;;;;;;;;;;5065576;28;20037;-56
2021/07/30 05:02:52;;;;;;;30.65;13.27;;;;;;;;;;5074506;28;20130;-56
2021/07/30 05:05:18;;;;;;;24.55;12.57;;;;;;;;;;5057728;28;20035;-57
2021/07/30 05:07:44;;;;;;;21.75;12.07;;;;;;;;;;5050497;28;20689;-57
2021/07/30 05:10:10;;;;;;;22.75;12.00;;;;;;;;;;5053861;28;20040;-55
2021/07/30 05:12:36;;;;;;;22.08;12.40;;;;;;;;;;5054956;28;20051;-57
2021/07/30 05:15:02;;;;;;;20.75;12.55;;;;;;;;;;5054857;28;20488;-57
2021/07/30 05:17:28;;;;;;;29.75;13.70;;;;;;;;;;5056027;28;20032;-57
2021/07/30 05:19:53;;;;;;;24.95;12.55;;;;;;;;;;5059226;28;20087;-56
2021/07/30 05:22:19;;;;;;;24.83;14.52;;;;;;;;;;5073781;28;20055;-57
2021/07/30 05:24:45;;;;;;;24.95;13.57;;;;;;;;;;5064268;28;20072;-57
2021/07/30 05:27:11;;;;;;;33.90;14.30;;;;;;;;;;5057414;28;20086;-58
2021/07/30 05:29:37;;;;;;;29.92;14.07;;;;;;;;;;5055078;28;20040;-58
2021/07/30 05:32:03;;;;;;;27.70;13.68;;;;;;;;;;5057910;28;20037;-58
2021/07/30 05:34:30;;;;;;;24.58;13.05;;;;;;;;;;5056856;28;20032;-58
2021/07/30 05:36:55;;;;;;;26.20;13.65;;;;;;;;;;5057266;28;20473;-57
2021/07/30 05:39:21;;;;;;;23.83;13.45;;;;;;;;;;5056008;28;20053;-57
2021/07/30 05:41:47;;;;;;;26.13;13.75;;;;;;;;;;5089255;28;20056;-57
2021/07/30 05:44:13;;;;;;;25.00;13.95;;;;;;;;;;5057212;28;20947;-57
2021/07/30 05:46:48;;;;;;;27.25;14.93;;;;;;;;;;5056169;28;20044;-58
2021/07/30 05:49:14;;;;;;;28.60;14.82;;;;;;;;;;5055894;28;20089;-57
2021/07/30 05:51:40;;;;;;;29.58;13.95;;;;;;;;;;5056431;28;20524;-57
2021/07/30 05:54:06;;;;;;;28.90;14.73;;;;;;;;;;5071158;28;20032;-58
2021/07/30 05:56:32;;;;;;;30.73;15.02;;;;;;;;;;5089958;28;20055;-57
2021/07/30 05:58:57;;;;;;;26.30;14.02;;;;;;;;;;5056421;28;20032;-57
2021/07/30 06:01:24;;;;;;;26.63;14.43;;;;;;;;;;5056196;28;20080;-58
2021/07/30 06:03:50;;;;;;;30.38;15.07;;;;;;;;;;5076067;28;20040;-55
2021/07/30 06:06:16;;;;;;;30.42;14.77;;;;;;;;;;5059423;28;20496;-57
2021/07/30 06:08:42;;;;;;;24.65;15.30;;;;;;;;;;5056295;28;20036;-56
2021/07/30 06:11:08;;;;;;;32.20;15.95;;;;;;;;;;5056949;28;20067;-56
2021/07/30 06:13:34;;;;;;;27.75;15.43;;;;;;;;;;5052149;28;20358;-57
2021/07/30 06:15:59;;;;;;;32.53;15.57;;;;;;;;;;5084846;28;20102;-57
2021/07/30 06:18:25;;;;;;;28.77;14.93;;;;;;;;;;5053979;28;20037;-57
2021/07/30 06:20:51;;;;;;;35.03;15.68;;;;;;;;;;5056419;28;20055;-56
2021/07/30 06:23:17;;;;;;;31.27;14.88;;;;;;;;;;5059658;28;20083;-56
2021/07/30 06:25:43;;;;;;;27.42;14.80;;;;;;;;;;5067319;28;20909;-57
2021/07/30 06:28:09;;;;;;;29.42;14.90;;;;;;;;;;5058416;28;20049;-57
2021/07/30 06:30:34;;;;;;;30.58;14.43;;;;;;;;;;5057237;28;20036;-56
2021/07/30 06:33:07;;;;;;;28.27;15.00;;;;;;;;;;5058030;28;20467;-56
2021/07/30 06:35:33;;;;;;;31.50;15.32;;;;;;;;;;5057118;28;20605;-56
2021/07/30 06:37:58;;;;;;;33.30;14.50;;;;;;;;;;5056303;28;20039;-56
2021/07/30 06:40:24;;;;;;;32.30;14.57;;;;;;;;;;5057350;28;20049;-57
2021/07/30 06:42:50;;;;;;;28.25;15.98;;;;;;;;;;5056887;28;20048;-55
2021/07/30 06:45:16;;;;;;;22.42;13.25;;;;;;;;;;5057694;28;20177;-56
2021/07/30 06:47:42;;;;;;;26.42;13.95;;;;;;;;;;5056334;28;20036;-57
2021/07/30 06:50:08;;;;;;;25.00;14.43;;;;;;;;;;5056344;28;20182;-57
2021/07/30 06:52:34;;;;;;;32.00;14.00;;;;;;;;;;5056409;28;20489;-56
2021/07/30 06:55:00;;;;;;;29.13;13.80;;;;;;;;;;5056742;28;20048;-56
2021/07/30 06:57:25;;;;;;;25.77;13.95;;;;;;;;;;5055385;28;20044;-57
2021/07/30 06:59:51;;;;;;;29.08;13.57;;;;;;;;;;5057005;28;20551;-57
2021/07/30 07:02:17;;;;;;;25.42;13.63;;;;;;;;;;5057972;28;20584;-57
2021/07/30 07:04:43;;;;;;;31.70;14.10;;;;;;;;;;5055309;28;20046;-57
2021/07/30 07:07:09;;;;;;;26.00;13.70;;;;;;;;;;5065927;28;20032;-57
2021/07/30 07:09:35;;;;;;;28.52;13.10;;;;;;;;;;5055395;28;20052;-56
2021/07/30 07:12:03;;;;;;;30.30;14.18;;;;;;;;;;5055143;28;20493;-56
2021/07/30 07:14:29;;;;;;;30.75;14.32;;;;;;;;;;5056053;28;20051;-56
2021/07/30 07:16:55;;;;;;;25.20;13.63;;;;;;;;;;5056369;28;20044;-56
2021/07/30 07:19:21;;;;;;;29.73;14.63;;;;;;;;;;5056052;28;20090;-56
2021/07/30 07:21:47;;;;;;;32.83;13.95;;;;;;;;;;5056621;28;20048;-56
2021/07/30 07:24:13;;;;;;;28.63;13.82;;;;;;;;;;5055945;28;20041;-56
2021/07/30 07:26:39;;;;;;;22.35;13.07;;;;;;;;;;5055258;28;20040;-56
2021/07/30 07:29:05;;;;;;;25.63;13.52;;;;;;;;;;5056409;28;20032;-56
2021/07/30 07:31:31;;;;;;;27.67;13.52;;;;;;;;;;5056655;28;20047;-56
2021/07/30 07:33:57;;;;;;;30.08;14.15;;;;;;;;;;5057572;28;20040;-56
2021/07/30 07:36:23;;;;;;;25.45;13.93;;;;;;;;;;5055966;28;20037;-57
2021/07/30 07:38:48;;;;;;;29.42;13.40;;;;;;;;;;5061878;28;20131;-56
2021/07/30 07:41:14;;;;;;;22.08;13.40;;;;;;;;;;5055973;28;20563;-55
2021/07/30 07:43:40;;;;;;;28.15;13.32;;;;;;;;;;5055857;28;20036;-57
2021/07/30 07:46:06;;;;;;;31.02;14.27;;;;;;;;;;5056824;28;20044;-57
2021/07/30 07:48:31;;;;;;;30.60;13.60;;;;;;;;;;5054879;28;20502;-57
2021/07/30 07:50:57;;;;;;;29.05;13.65;;;;;;;;;;5057595;28;20462;-56
2021/07/30 07:53:23;;;;;;;29.83;13.85;;;;;;;;;;5056470;28;20039;-57
2021/07/30 07:55:58;;;;;;;26.45;13.88;;;;;;;;;;5055609;28;20713;-57
2021/07/30 07:58:24;;;;;;;27.48;13.57;;;;;;;;;;5054858;28;20119;-57
2021/07/30 08:00:50;;;;;;;29.48;14.75;;;;;;;;;;5057437;28;20044;-57
2021/07/30 08:03:15;;;;;;;27.75;13.40;;;;;;;;;;5056422;28;20503;-57
2021/07/30 08:05:41;;;;;;;28.35;14.13;;;;;;;;;;5054030;28;20435;-56
2021/07/30 08:08:07;;;;;;;30.23;14.80;;;;;;;;;;5060512;28;20146;-55
2021/07/30 08:10:33;;;;;;;30.60;15.23;;;;;;;;;;5073449;28;20039;-55
2021/07/30 08:12:59;;;;;;;27.48;14.65;;;;;;;;;;5073651;28;20052;-57
2021/07/30 08:15:25;;;;;;;31.20;14.95;;;;;;;;;;5072955;28;20040;-55
2021/07/30 08:17:50;;;;;;;28.73;15.85;;;;;;;;;;5073606;28;20052;-58
2021/07/30 08:20:16;;;;;;;38.67;14.68;;;;;;;;;;5055728;28;20093;-58
2021/07/30 08:22:43;;;;;;;32.33;15.13;;;;;;;;;;5072621;28;20496;-56
2021/07/30 08:25:09;;;;;;;27.70;15.32;;;;;;;;;;5072691;28;20047;-57
2021/07/30 08:27:35;;;;;;;26.70;14.32;;;;;;;;;;5072672;28;20513;-57
2021/07/30 08:30:01;;;;;;;21.90;13.50;;;;;;;;;;5073167;28;20036;-57
2021/07/30 08:32:27;;;;;;;31.40;16.33;;;;;;;;;;5072652;28;20036;-58
2021/07/30 08:34:53;;;;;;;36.95;16.13;;;;;;;;;;5072842;28;20050;-58
2021/07/30 08:37:19;;;;;;;31.95;16.63;;;;;;;;;;5071787;28;20035;-57
2021/07/30 08:39:44;;;;;;;26.52;15.23;;;;;;;;;;5074611;28;20050;-58
2021/07/30 08:42:11;;;;;;;30.15;15.35;;;;;;;;;;5073723;28;20056;-58
2021/07/30 08:44:38;;;;;;;27.38;14.77;;;;;;;;;;5073302;28;20040;-57
2021/07/30 08:47:04;;;;;;;37.13;15.70;;;;;;;;;;5072585;28;20037;-58
2021/07/30 08:49:33;;;;;;;30.58;14.70;;;;;;;;;;5073200;28;20039;-56
2021/07/30 08:52:10;;;;;;;29.92;15.00;;;;;;;;;;5075719;28;20036;-57
2021/07/30 08:54:37;;;;;;;31.00;16.50;;;;;;;;;;5076667;28;20036;-57
2021/07/30 08:57:09;;;;;;;28.60;14.95;;;;;;;;;;5077088;28;20111;-55
2021/07/30 08:59:38;;;;;;;29.73;16.00;;;;;;;;;;5079400;28;20040;-57
2021/07/30 09:02:05;;;;;;;26.05;14.80;;;;;;;;;;5077676;28;20384;-58
2021/07/30 09:04:31;;;;;;;30.52;14.75;;;;;;;;;;5075947;28;20028;-58
2021/07/30 09:06:57;;;;;;;29.55;14.93;;;;;;;;;;5077965;28;20040;-57
2021/07/30 09:09:24;;;;;;;35.38;14.18;;;;;;;;;;5078082;28;20036;-58
2021/07/30 09:11:59;;;;;;;33.53;14.93;;;;;;;;;;5080348;28;20040;-55
2021/07/30 09:14:33;;;;;;;26.08;14.10;;;;;;;;;;5077954;28;20036;-58
2021/07/30 09:16:58;;;;;;;27.90;14.32;;;;;;;;;;5077824;28;21553;-60
2021/07/30 09:19:24;;;;;;;25.80;14.10;;;;;;;;;;5077810;28;20184;-58
2021/07/30 09:22:09;;;;;;;24.52;14.43;;;;;;;;;;5077702;28;20052;-59
2021/07/30 09:24:35;;;;;;;30.58;14.18;;;;;;;;;;5078857;28;20075;-60
2021/07/30 09:27:01;;;;;;;32.70;14.90;;;;;;;;;;5077366;28;20440;-59
2021/07/30 09:29:28;;;;;;;31.65;14.52;;;;;;;;;;5093802;28;20040;-58
2021/07/30 09:31:58;;;;;;;31.90;14.93;;;;;;;;;;5077697;28;20269;-55
2021/07/30 09:34:25;;;;;;;29.63;15.63;;;;;;;;;;5076314;28;20317;-59
2021/07/30 09:36:55;;;;;;;32.28;15.52;;;;;;;;;;5077826;28;20047;-57
2021/07/30 09:39:22;;;;;;;26.52;14.30;;;;;;;;;;5076369;28;20048;-58
2021/07/30 09:41:57;;;;;;;30.85;15.25;;;;;;;;;;5076588;28;20098;-58
2021/07/30 09:44:22;;;;;;;32.58;15.30;;;;;;;;;;5075389;28;20085;-58
2021/07/30 09:47:01;;;;;;;29.85;15.38;;;;;;;;;;5075496;28;20032;-57
2021/07/30 09:49:40;;;;;;;25.48;14.65;;;;;;;;;;5076503;28;20040;-56
2021/07/30 09:52:10;;;;;;;28.77;14.45;;;;;;;;;;5075896;28;20127;-58
2021/07/30 09:54:36;;;;;;;25.88;14.80;;;;;;;;;;5075210;28;20568;-55
2021/07/30 09:57:03;;;;;;;28.45;15.80;;;;;;;;;;5076322;28;20047;-57
2021/07/30 09:59:29;;;;;;;28.67;14.40;;;;;;;;;;5063124;28;21068;-56
2021/07/30 10:01:55;;;;;;;27.50;14.95;;;;;;;;;;5074956;28;20059;-57
2021/07/30 10:04:24;;;;;;;29.08;15.38;;;;;;;;;;5075410;28;20035;-57
2021/07/30 10:06:49;;;;;;;32.92;16.00;;;;;;;;;;5064266;28;20032;-62
2021/07/30 10:09:17;;;;;;;31.27;17.33;;;;;;;;;;5076337;28;20105;-59
2021/07/30 10:11:43;;;;;;;25.65;15.23;;;;;;;;;;5075630;28;20048;-57
2021/07/30 10:14:11;;;;;;;28.45;15.88;;;;;;;;;;5075754;28;20038;-58
2021/07/30 10:16:48;;;;;;;30.38;15.73;;;;;;;;;;5060508;28;22062;-56
2021/07/30 10:19:15;;;;;;;29.30;16.08;;;;;;;;;;5063175;28;20074;-55
2021/07/30 10:21:41;;;;;;;29.70;16.50;;;;;;;;;;5063278;28;20103;-58
2021/07/30 10:24:07;;;;;;;30.10;15.60;;;;;;;;;;5054725;28;20036;-58
2021/07/30 10:26:33;;;;;;;32.75;15.30;;;;;;;;;;5055807;28;20040;-58
2021/07/30 10:28:59;;;;;;;34.17;15.15;;;;;;;;;;5055517;28;20037;-60
2021/07/30 10:31:45;;;;;;;26.63;15.63;;;;;;;;;;5054002;28;20556;-57
2021/07/30 10:34:11;;;;;;;31.52;15.85;;;;;;;;;;5054293;28;20054;-58
2021/07/30 10:36:37;;;;;;;29.45;16.27;;;;;;;;;;5045919;28;20028;-58
2021/07/30 10:39:21;;;;;;;25.30;15.65;;;;;;;;;;5055121;28;20044;-59
2021/07/30 10:42:05;;;;;;;28.67;16.02;;;;;;;;;;5062275;28;20060;-58
2021/07/30 10:44:31;;;;;;;37.58;16.90;;;;;;;;;;5054353;28;20049;-58
2021/07/30 10:47:15;;;;;;;32.38;16.35;;;;;;;;;;5054560;28;20036;-57
2021/07/30 10:49:41;;;;;;;27.42;15.00;;;;;;;;;;5054852;28;20050;-56
2021/07/30 10:52:27;;;;;;;26.98;15.48;;;;;;;;;;5054794;28;20044;-57
2021/07/30 10:54:52;;;;;;;25.52;15.30;;;;;;;;;;5054656;28;20040;-58
2021/07/30 10:57:37;;;;;;;31.92;16.30;;;;;;;;;;5053531;28;20039;-56
2021/07/30 11:00:07;;;;;;;32.63;16.35;;;;;;;;;;5054518;28;20303;-55
2021/07/30 11:02:51;;;;;;;33.17;16.58;;;;;;;;;;5053552;28;20048;-56
2021/07/30 11:05:17;;;;;;;28.13;15.77;;;;;;;;;;5054954;28;20451;-56
2021/07/30 11:07:43;;;;;;;40.67;16.77;;;;;;;;;;5063301;28;20048;-57
2021/07/30 11:10:13;;;;;;;31.63;16.38;;;;;;;;;;5055548;28;20043;-55
2021/07/30 11:12:40;;;;;;;40.05;17.38;;;;;;;;;;5053273;28;20497;-55
2021/07/30 11:15:09;;;;;;;34.00;16.98;;;;;;;;;;5055480;28;20122;-55
2021/07/30 11:17:35;;;;;;;29.38;16.35;;;;;;;;;;5052922;28;20025;-55
2021/07/30 11:20:02;;;;;;;30.13;16.58;;;;;;;;;;5055648;28;20044;-55
2021/07/30 11:22:28;;;;;;;36.53;16.88;;;;;;;;;;5053618;28;20072;-55
2021/07/30 11:24:54;;;;;;;29.08;16.52;;;;;;;;;;5054077;28;20147;-56
2021/07/30 11:27:21;;;;;;;31.70;17.20;;;;;;;;;;5053657;28;20098;-56
2021/07/30 11:29:48;;;;;;;30.02;17.20;;;;;;;;;;5055253;28;20047;-56
2021/07/30 11:32:15;;;;;;;28.20;15.75;;;;;;;;;;5053204;28;20098;-57
2021/07/30 11:34:46;;;;;;;27.85;16.33;;;;;;;;;;5051647;28;20040;-55
2021/07/30 11:37:13;;;;;;;29.73;16.75;;;;;;;;;;5054856;28;20068;-58
2021/07/30 11:39:39;;;;;;;28.50;16.55;;;;;;;;;;5054754;28;20087;-55
2021/07/30 11:42:08;;;;;;;31.33;16.33;;;;;;;;;;5054237;28;20105;-56
2021/07/30 11:44:43;;;;;;;33.72;17.20;;;;;;;;;;5053957;28;20040;-55
2021/07/30 11:47:08;;;;;;;30.00;16.77;;;;;;;;;;5054658;28;20040;-56
2021/07/30 11:49:35;;;;;;;32.58;17.48;;;;;;;;;;5053281;28;20451;-55
2021/07/30 11:52:02;;;;;;;33.70;16.77;;;;;;;;;;5054728;28;20040;-55
2021/07/30 11:54:28;;;;;;;28.55;16.80;;;;;;;;;;5053407;28;20052;-54
2021/07/30 11:56:54;;;;;;;29.58;17.00;;;;;;;;;;5054082;28;20060;-58
2021/07/30 11:59:20;;;;;;;32.75;16.83;;;;;;;;;;5054639;28;20069;-58
2021/07/30 12:02:18;;;;;;;29.10;16.85;;;;;;;;;;5052553;28;20052;-58
2021/07/30 12:04:54;;;;;;;31.60;16.88;;;;;;;;;;5017211;28;20126;-57
2021/07/30 12:07:20;;;;;;;30.98;16.75;;;;;;;;;;5053302;28;20041;-59
2021/07/30 12:09:48;;;;;;;29.17;16.25;;;;;;;;;;5054109;28;20937;-57
2021/07/30 12:12:14;;;;;;;32.08;17.23;;;;;;;;;;5053293;28;20043;-60
2021/07/30 12:14:41;;;;;;;29.63;16.05;;;;;;;;;;5064152;28;20035;-60
2021/07/30 12:17:07;;;;;;;33.33;17.08;;;;;;;;;;5073639;28;20090;-60
2021/07/30 12:19:34;;;;;;;33.25;16.48;;;;;;;;;;5055352;28;20826;-59
2021/07/30 12:22:04;;;;;;;30.23;16.73;;;;;;;;;;5053168;28;20117;-58
2021/07/30 12:24:31;;;;;;;33.25;17.42;;;;;;;;;;5052214;28;20047;-56
2021/07/30 12:26:57;;;;;;;47.10;25.65;;;;;;;;;;5057075;28;20049;-59
2021/07/30 12:29:36;;;;;;;46.85;25.45;;;;;;;;;;5057719;28;20588;-59
2021/07/30 12:32:14;;;;;;;46.20;25.23;;;;;;;;;;5056522;28;20032;-60
2021/07/30 12:34:53;;;;;;;29.88;16.95;;;;;;;;;;5056187;28;20122;-59
2021/07/30 12:37:20;;;;;;;31.70;17.45;;;;;;;;;;5057536;28;20401;-56
2021/07/30 12:39:46;;;;;;;33.10;16.98;;;;;;;;;;5056425;28;20169;-58
2021/07/30 12:42:32;;;;;;;31.63;17.40;;;;;;;;;;5056674;28;20676;-58
2021/07/30 12:45:09;;;;;;;31.27;16.95;;;;;;;;;;5056437;28;20045;-58
2021/07/30 12:47:36;;;;;;;32.65;17.90;;;;;;;;;;5054089;28;20050;-58
2021/07/30 12:50:21;;;;;;;32.63;17.92;;;;;;;;;;5055345;28;20044;-58
2021/07/30 12:53:05;;;;;;;32.70;17.10;;;;;;;;;;5055218;28;20639;-57
2021/07/30 12:55:31;;;;;;;34.03;17.20;;;;;;;;;;5049334;28;20037;-57
2021/07/30 12:57:57;;;;;;;52.97;18.30;;;;;;;;;;5056866;28;20385;-57
2021/07/30 13:00:32;;;;;;;30.95;17.23;;;;;;;;;;5056093;28;20044;-58
2021/07/30 13:02:58;;;;;;;37.13;16.88;;;;;;;;;;5055577;28;21004;-55
2021/07/30 13:05:30;;;;;;;34.88;17.45;;;;;;;;;;5074523;28;20082;-58
2021/07/30 13:07:56;;;;;;;38.70;17.20;;;;;;;;;;5076583;28;20150;-58
2021/07/30 13:10:22;;;;;;;36.90;19.17;;;;;;;;;;5067197;28;20155;-57
2021/07/30 13:12:49;;;;;;;38.58;18.23;;;;;;;;;;5055942;28;20032;-59
2021/07/30 13:15:15;;;;;;;33.95;16.40;;;;;;;;;;5057067;28;20041;-59
2021/07/30 13:17:40;;;;;;;35.63;17.52;;;;;;;;;;5057421;28;20048;-60
2021/07/30 13:20:06;;;;;;;30.33;17.25;;;;;;;;;;5057386;28;20819;-59
2021/07/30 13:22:32;;;;;;;30.27;16.20;;;;;;;;;;5054909;28;20094;-57
2021/07/30 13:24:58;;;;;;;33.47;16.73;;;;;;;;;;5056173;28;20116;-59
2021/07/30 13:27:24;;;;;;;28.90;16.38;;;;;;;;;;5055516;28;20387;-61
2021/07/30 13:29:50;;;;;;;31.17;16.65;;;;;;;;;;5061215;28;20044;-61
2021/07/30 13:32:16;;;;;;;31.15;15.52;;;;;;;;;;5068159;28;20044;-60
2021/07/30 13:34:41;;;;;;;31.17;16.02;;;;;;;;;;5056474;28;21932;-60
2021/07/30 13:37:07;;;;;;;28.38;16.17;;;;;;;;;;5055230;28;20040;-60
2021/07/30 13:39:33;;;;;;;34.10;15.93;;;;;;;;;;5055404;28;21648;-61
2021/07/30 13:41:59;;;;;;;29.67;15.93;;;;;;;;;;5057519;28;20166;-60
2021/07/30 13:44:25;;;;;;;29.60;15.60;;;;;;;;;;5054648;28;20512;-59
2021/07/30 13:46:51;;;;;;;29.52;16.25;;;;;;;;;;5060754;28;20037;-57
2021/07/30 13:49:16;;;;;;;27.30;15.13;;;;;;;;;;5061908;28;20037;-59
2021/07/30 13:51:42;;;;;;;35.22;16.42;;;;;;;;;;5059947;28;20044;-58
2021/07/30 13:54:08;;;;;;;32.92;16.92;;;;;;;;;;5074833;28;20434;-58
2021/07/30 13:56:35;;;;;;;31.67;18.27;;;;;;;;;;5068239;28;20152;-59
2021/07/30 13:59:01;;;;;;;29.75;16.08;;;;;;;;;;5059190;28;20039;-59
2021/07/30 14:01:27;;;;;;;32.85;17.20;;;;;;;;;;5056748;28;20405;-59
2021/07/30 14:03:52;;;;;;;33.83;17.30;;;;;;;;;;5079052;28;20259;-59
2021/07/30 14:06:18;;;;;;;34.67;16.80;;;;;;;;;;5063487;28;20036;-59
2021/07/30 14:08:44;;;;;;;29.75;16.77;;;;;;;;;;5057918;28;20036;-59
2021/07/30 14:11:14;;;;;;;33.33;17.65;;;;;;;;;;5055216;28;20657;-58
2021/07/30 14:13:40;;;;;;;35.45;17.60;;;;;;;;;;5056125;28;20040;-59
2021/07/30 14:16:05;;;;;;;36.53;17.10;;;;;;;;;;5056265;28;20041;-59
2021/07/30 14:18:34;;;;;;;33.47;17.60;;;;;;;;;;5057265;28;20039;-59
2021/07/30 14:21:00;;;;;;;41.75;19.45;;;;;;;;;;5056400;28;20047;-58